createdAt,value
2023-03-02T00:02:03.813Z,-2.53
2023-03-02T00:05:07.011Z,-2.50
2023-03-02T00:08:10.008Z,-2.48
2023-03-02T00:11:11.828Z,-2.48
2023-03-02T00:14:13.763Z,-2.53
2023-03-02T00:17:15.636Z,-2.50
2023-03-02T00:20:17.920Z,-2.48
2023-03-02T00:23:19.833Z,-2.51
2023-03-02T00:26:21.705Z,-2.53
2023-03-02T00:29:23.772Z,-2.53
2023-03-02T00:32:26.035Z,-2.57
2023-03-02T00:35:28.032Z,-2.54
2023-03-02T00:38:30.196Z,-2.58
2023-03-02T00:41:34.723Z,-2.53
2023-03-02T00:44:36.631Z,-2.57
2023-03-02T00:47:39.129Z,-2.54
2023-03-02T00:50:41.774Z,-2.52
2023-03-02T00:53:43.748Z,-2.59
2023-03-02T00:56:46.449Z,-2.58
2023-03-02T00:59:48.969Z,-2.62
2023-03-02T01:03:17.154Z,-2.73
2023-03-02T01:06:21.005Z,-2.80
2023-03-02T01:09:23.171Z,-2.84
2023-03-02T01:12:25.020Z,-2.86
2023-03-02T01:15:28.381Z,-2.91
2023-03-02T01:18:34.429Z,-3.05
2023-03-02T01:21:36.507Z,-3.07
2023-03-02T01:24:39.577Z,-3.13
2023-03-02T01:27:41.564Z,-3.16
2023-03-02T01:30:50.627Z,-3.20
2023-03-02T01:33:52.871Z,-3.29
2023-03-02T01:36:54.819Z,-3.32
2023-03-02T01:39:56.757Z,-3.31
2023-03-02T01:43:02.621Z,-3.30
2023-03-02T01:46:16.533Z,-3.41
2023-03-02T01:49:25.553Z,-3.42
2023-03-02T01:52:35.111Z,-3.37
2023-03-02T01:55:39.103Z,-3.39
2023-03-02T01:58:41.322Z,-3.31
2023-03-02T02:01:47.588Z,-3.47
2023-03-02T02:04:50.522Z,-3.38
2023-03-02T02:07:52.401Z,-3.41
2023-03-02T02:10:55.404Z,-3.43
2023-03-02T02:13:58.772Z,-3.49
2023-03-02T02:17:01.514Z,-3.43
2023-03-02T02:20:29.454Z,-3.50
2023-03-02T02:23:42.759Z,-3.42
2023-03-02T02:26:52.085Z,-3.46
2023-03-02T02:29:58.341Z,-3.46
2023-03-02T02:33:01.541Z,-3.39
2023-03-02T02:36:09.568Z,-3.47
2023-03-02T02:39:29.119Z,-3.39
2023-03-02T02:42:35.779Z,-3.43
2023-03-02T02:45:37.857Z,-3.40
2023-03-02T02:48:40.115Z,-3.44
2023-03-02T02:51:42.069Z,-3.45
2023-03-02T02:54:47.297Z,-3.45
2023-03-02T02:57:52.017Z,-3.41
2023-03-02T03:00:56.263Z,-3.35
2023-03-02T03:04:02.670Z,-3.37
2023-03-02T03:07:06.617Z,-3.38
2023-03-02T03:10:15.225Z,-3.36
2023-03-02T03:13:17.381Z,-3.35
2023-03-02T03:16:21.205Z,-3.33
2023-03-02T03:19:30.793Z,-3.33
2023-03-02T03:22:38.530Z,-3.32
2023-03-02T03:25:42.492Z,-3.27
2023-03-02T03:28:45.269Z,-3.32
2023-03-02T03:31:47.335Z,-3.26
2023-03-02T03:34:49.427Z,-3.27
2023-03-02T03:38:00.002Z,-3.17
2023-03-02T03:41:02.160Z,-3.15
2023-03-02T03:44:04.875Z,-3.18
2023-03-02T03:47:09.679Z,-3.19
2023-03-02T03:50:12.123Z,-3.16
2023-03-02T03:53:15.026Z,-3.22
2023-03-02T03:56:17.111Z,-3.09
2023-03-02T03:59:23.334Z,-3.11
2023-03-02T04:02:29.633Z,-3.00
2023-03-02T04:05:31.824Z,-2.97
2023-03-02T04:08:35.708Z,-2.96
2023-03-02T04:11:41.240Z,-2.99
2023-03-02T04:14:45.204Z,-2.91
2023-03-02T04:17:50.674Z,-2.93
2023-03-02T04:20:56.448Z,-2.83
2023-03-02T04:23:58.452Z,-2.76
2023-03-02T04:27:00.502Z,-2.92
2023-03-02T04:30:05.231Z,-2.79
2023-03-02T04:33:07.397Z,-2.66
2023-03-02T04:36:10.885Z,-2.70
2023-03-02T04:39:15.875Z,-2.62
2023-03-02T04:42:21.719Z,-2.60
2023-03-02T04:45:26.687Z,-2.51
2023-03-02T04:48:29.457Z,-2.47
2023-03-02T04:51:34.437Z,-2.44
2023-03-02T04:54:36.325Z,-2.40
2023-03-02T04:57:38.198Z,-2.34
2023-03-02T05:00:40.912Z,-2.23
2023-03-02T05:03:42.988Z,-2.24
2023-03-02T05:06:45.292Z,-2.19
2023-03-02T05:09:47.164Z,-2.06
2023-03-02T05:12:55.810Z,-2.09
2023-03-02T05:16:01.371Z,-2.06
2023-03-02T05:19:04.899Z,-1.92
2023-03-02T05:22:08.988Z,-1.84
2023-03-02T05:25:12.222Z,-1.91
2023-03-02T05:28:14.086Z,-1.69
2023-03-02T05:31:23.435Z,-1.60
2023-03-02T05:34:28.174Z,-1.55
2023-03-02T05:37:32.676Z,-1.51
2023-03-02T05:40:40.012Z,-1.53
2023-03-02T05:43:41.875Z,-1.54
2023-03-02T05:46:43.760Z,-1.52
2023-03-02T05:49:46.037Z,-1.46
2023-03-02T05:52:48.526Z,-1.35
2023-03-02T05:55:53.116Z,-1.31
2023-03-02T05:58:57.377Z,-1.25
2023-03-02T06:01:59.556Z,-1.23
2023-03-02T06:05:01.549Z,-1.32
2023-03-02T06:08:04.054Z,-1.13
2023-03-02T06:11:05.889Z,-1.05
2023-03-02T06:14:07.802Z,-1.12
2023-03-02T06:17:11.711Z,-0.91
2023-03-02T06:20:14.843Z,-0.95
2023-03-02T06:23:17.136Z,-0.85
2023-03-02T06:26:19.046Z,-0.72
2023-03-02T06:29:22.555Z,-0.53
2023-03-02T06:32:27.004Z,-0.37
2023-03-02T06:35:29.265Z,-0.44
2023-03-02T06:38:32.285Z,-0.27
2023-03-02T06:41:34.462Z,-0.20
2023-03-02T06:44:36.475Z,-0.16
2023-03-02T06:47:38.844Z,-0.05
2023-03-02T06:50:40.724Z,0.06
2023-03-02T06:53:42.574Z,0.26
2023-03-02T06:56:44.449Z,0.57
2023-03-02T06:59:46.358Z,0.62
2023-03-02T07:02:50.224Z,0.72
2023-03-02T07:05:52.346Z,0.72
2023-03-02T07:08:54.298Z,0.65
2023-03-02T07:11:58.647Z,0.89
2023-03-02T07:15:04.081Z,0.93
2023-03-02T07:18:06.159Z,0.93
2023-03-02T07:21:09.443Z,1.24
2023-03-02T07:24:11.368Z,1.48
2023-03-02T07:27:16.223Z,1.67
2023-03-02T07:30:21.343Z,1.97
2023-03-02T07:33:23.337Z,2.41
2023-03-02T07:36:26.364Z,2.52
2023-03-02T07:39:28.191Z,2.48
2023-03-02T07:42:30.153Z,2.34
2023-03-02T07:45:33.748Z,2.36
2023-03-02T07:48:35.816Z,2.15
2023-03-02T07:51:37.704Z,1.91
2023-03-02T07:54:39.541Z,1.89
2023-03-02T07:57:41.429Z,1.80
2023-03-02T08:01:03.411Z,1.67
2023-03-02T08:04:05.416Z,1.67
2023-03-02T08:07:07.391Z,1.36
2023-03-02T08:10:12.281Z,1.60
2023-03-02T08:13:14.207Z,1.30
2023-03-02T08:16:16.556Z,1.54
2023-03-02T08:19:20.710Z,1.65
2023-03-02T08:22:24.805Z,1.68
2023-03-02T08:25:26.696Z,1.76
2023-03-02T08:28:28.681Z,1.63
2023-03-02T08:31:31.326Z,1.52
2023-03-02T08:34:33.744Z,1.45
2023-03-02T08:37:35.746Z,1.40
2023-03-02T08:40:41.403Z,1.47
2023-03-02T08:43:43.811Z,1.53
2023-03-02T08:46:45.690Z,1.35
2023-03-02T08:49:48.277Z,1.54
2023-03-02T08:52:50.323Z,1.43
2023-03-02T08:55:54.621Z,1.62
2023-03-02T08:58:59.876Z,1.67
2023-03-02T09:02:10.257Z,1.60
2023-03-02T09:05:12.465Z,1.39
2023-03-02T09:08:14.604Z,1.53
2023-03-02T09:11:16.577Z,1.72
2023-03-02T09:14:18.470Z,1.81
2023-03-02T09:17:20.308Z,1.78
2023-03-02T09:20:22.164Z,1.89
2023-03-02T09:23:25.769Z,2.10
2023-03-02T09:26:29.777Z,2.63
2023-03-02T09:29:31.695Z,3.19
2023-03-02T09:32:33.939Z,3.22
2023-03-02T09:35:38.741Z,3.63
2023-03-02T09:38:40.737Z,3.97
2023-03-02T09:42:06.394Z,4.17
2023-03-02T09:45:36.218Z,4.29
2023-03-02T09:49:02.050Z,4.38
2023-03-02T09:52:20.193Z,4.70
2023-03-02T09:55:29.817Z,4.86
2023-03-02T09:58:37.824Z,5.01
2023-03-02T10:01:47.255Z,4.82
2023-03-02T10:04:53.452Z,5.12
2023-03-02T10:07:57.841Z,5.35
2023-03-02T10:11:22.508Z,5.38
2023-03-02T10:14:42.090Z,5.36
2023-03-02T10:18:22.609Z,4.65
2023-03-02T10:21:30.102Z,4.87
2023-03-02T10:24:41.574Z,4.89
2023-03-02T10:27:50.295Z,5.02
2023-03-02T10:31:08.429Z,4.54
2023-03-02T10:34:13.402Z,4.76
2023-03-02T10:37:19.540Z,4.97
2023-03-02T10:40:46.614Z,4.69
2023-03-02T10:43:58.639Z,4.67
2023-03-02T10:47:00.602Z,4.81
2023-03-02T10:50:02.656Z,4.87
2023-03-02T10:53:08.783Z,4.93
2023-03-02T10:56:20.873Z,5.03
2023-03-02T10:59:26.213Z,4.90
2023-03-02T11:02:37.727Z,4.70
2023-03-02T11:05:41.517Z,4.65
2023-03-02T11:08:43.453Z,4.76
2023-03-02T11:11:57.105Z,4.64
2023-03-02T11:15:12.316Z,4.59
2023-03-02T11:18:34.778Z,4.27
2023-03-02T11:22:20.640Z,4.21
2023-03-02T11:25:31.885Z,4.34
2023-03-02T11:28:44.781Z,4.16
2023-03-02T11:31:47.060Z,4.17
2023-03-02T11:34:55.924Z,4.17
2023-03-02T11:38:09.288Z,3.78
2023-03-02T11:41:30.272Z,3.95
2023-03-02T11:44:32.184Z,3.66
2023-03-02T11:47:36.100Z,3.50
2023-03-02T11:51:08.892Z,3.47
2023-03-02T11:54:34.733Z,3.27
2023-03-02T11:57:49.688Z,3.44
2023-03-02T12:00:52.597Z,3.38
2023-03-02T12:07:25.171Z,3.22
2023-03-02T12:10:58.966Z,3.32
2023-03-02T12:14:04.157Z,3.43
2023-03-02T12:17:19.321Z,3.53
2023-03-02T12:20:21.215Z,3.48
2023-03-02T12:23:25.222Z,3.49
2023-03-02T12:26:35.582Z,3.17
2023-03-02T12:29:49.722Z,3.57
2023-03-02T12:33:03.126Z,3.78
2023-03-02T12:36:13.709Z,3.74
2023-03-02T12:39:45.100Z,3.70
2023-03-02T12:43:16.225Z,3.75
2023-03-02T12:46:27.945Z,3.71
2023-03-02T12:49:51.381Z,3.70
2023-03-02T12:52:57.933Z,3.67
2023-03-02T12:55:59.901Z,3.67
2023-03-02T12:59:01.805Z,3.65
2023-03-02T13:02:24.264Z,3.65
2023-03-02T13:05:30.512Z,3.61
2023-03-02T13:08:33.020Z,3.52
2023-03-02T13:11:37.099Z,3.50
2023-03-02T13:14:41.607Z,3.44
2023-03-02T13:17:44.755Z,3.36
2023-03-02T13:20:47.056Z,3.37
2023-03-02T13:23:50.663Z,3.32
2023-03-02T13:27:04.816Z,3.33
2023-03-02T13:30:27.274Z,3.35
2023-03-02T13:33:31.421Z,3.20
2023-03-02T13:36:38.695Z,3.14
2023-03-02T13:39:40.576Z,3.03
2023-03-02T13:42:42.896Z,3.02
2023-03-02T13:46:01.498Z,2.92
2023-03-02T13:49:11.064Z,3.05
2023-03-02T13:52:30.305Z,3.00
2023-03-02T13:55:32.737Z,3.04
2023-03-02T13:58:39.683Z,2.97
2023-03-02T14:01:41.844Z,3.03
2023-03-02T14:04:43.776Z,2.94
2023-03-02T14:07:46.550Z,2.87
2023-03-02T14:10:51.741Z,2.82
2023-03-02T14:13:55.022Z,2.84
2023-03-02T14:16:57.061Z,2.89
2023-03-02T14:19:59.154Z,2.87
2023-03-02T14:23:03.573Z,2.88
2023-03-02T14:26:18.256Z,2.84
2023-03-02T14:29:26.748Z,2.85
2023-03-02T14:32:29.423Z,2.83
2023-03-02T14:35:31.325Z,2.73
2023-03-02T14:38:33.239Z,2.69
2023-03-02T14:41:52.598Z,2.64
2023-03-02T14:44:55.420Z,2.52
2023-03-02T14:47:57.347Z,2.58
2023-03-02T14:51:02.721Z,2.52
2023-03-02T14:54:07.792Z,2.48
2023-03-02T14:57:22.508Z,2.32
2023-03-02T15:00:25.334Z,2.41
2023-03-02T15:03:27.841Z,2.24
2023-03-02T15:06:33.301Z,2.32
2023-03-02T15:09:35.381Z,2.25
2023-03-02T15:12:37.553Z,2.29
2023-03-02T15:15:40.893Z,2.26
2023-03-02T15:18:42.936Z,2.17
2023-03-02T15:21:46.530Z,2.20
2023-03-02T15:24:48.429Z,2.21
2023-03-02T15:27:50.711Z,2.18
2023-03-02T15:30:52.682Z,2.06
2023-03-02T15:33:55.887Z,2.12
2023-03-02T15:36:57.773Z,1.98
2023-03-02T15:40:00.948Z,2.07
2023-03-02T15:43:03.101Z,2.09
2023-03-02T15:46:09.503Z,2.07
2023-03-02T15:49:14.148Z,2.06
2023-03-02T15:52:16.327Z,2.04
2023-03-02T15:55:18.464Z,1.97
2023-03-02T15:58:21.966Z,2.01
2023-03-02T16:01:23.958Z,2.00
2023-03-02T16:04:26.953Z,1.99
2023-03-02T16:07:30.066Z,1.91
2023-03-02T16:10:32.157Z,1.99
2023-03-02T16:13:34.803Z,2.01
2023-03-02T16:16:36.775Z,2.02
2023-03-02T16:19:38.703Z,1.98
2023-03-02T16:22:40.630Z,2.01
2023-03-02T16:25:43.870Z,2.00
2023-03-02T16:28:46.212Z,1.99
2023-03-02T16:31:48.943Z,1.97
2023-03-02T16:34:56.631Z,1.97
2023-03-02T16:37:58.703Z,1.97
2023-03-02T16:41:01.382Z,1.97
2023-03-02T16:44:04.269Z,1.93
2023-03-02T16:47:06.217Z,1.91
2023-03-02T16:50:08.752Z,1.90
2023-03-02T16:53:13.490Z,1.92
2023-03-02T16:56:21.074Z,1.86
2023-03-02T16:59:22.985Z,1.92
2023-03-02T17:02:24.882Z,1.92
2023-03-02T17:05:26.714Z,1.90
2023-03-02T17:08:29.075Z,1.87
2023-03-02T17:11:31.970Z,1.71
2023-03-02T17:14:35.733Z,1.85
2023-03-02T17:17:38.865Z,1.79
2023-03-02T17:20:43.236Z,1.80
2023-03-02T17:23:48.152Z,1.82
2023-03-02T17:26:50.125Z,1.85
2023-03-02T17:29:52.257Z,1.83
2023-03-02T17:32:54.202Z,1.86
2023-03-02T17:35:56.208Z,1.80
2023-03-02T17:38:58.124Z,1.80
2023-03-02T17:42:00.059Z,1.80
2023-03-02T17:45:01.993Z,1.82
2023-03-02T17:48:04.334Z,1.82
2023-03-02T17:51:06.437Z,1.82
2023-03-02T17:54:08.361Z,1.82
2023-03-02T17:57:11.309Z,1.80
2023-03-02T18:00:17.778Z,1.77
2023-03-02T18:03:19.917Z,1.75
2023-03-02T18:06:24.201Z,1.71
2023-03-02T18:09:26.166Z,1.71
2023-03-02T18:12:30.064Z,1.67
2023-03-02T18:15:32.035Z,1.69
2023-03-02T18:18:34.695Z,1.70
2023-03-02T18:21:36.739Z,1.70
2023-03-02T18:24:38.751Z,1.67
2023-03-02T18:27:40.647Z,1.63
2023-03-02T18:30:42.926Z,1.60
2023-03-02T18:33:48.764Z,1.63
2023-03-02T18:36:50.906Z,1.66
2023-03-02T18:39:52.832Z,1.64
2023-03-02T18:42:54.775Z,1.67
2023-03-02T18:45:57.836Z,1.66
2023-03-02T18:49:01.023Z,1.54
2023-03-02T18:52:06.924Z,1.58
2023-03-02T18:55:09.289Z,1.62
2023-03-02T18:58:18.753Z,1.65
2023-03-02T19:01:27.517Z,1.62
2023-03-02T19:04:30.877Z,1.63
2023-03-02T19:07:35.085Z,1.60
2023-03-02T19:10:39.659Z,1.61
2023-03-02T19:13:41.606Z,1.62
2023-03-02T19:16:43.565Z,1.60
2023-03-02T19:19:45.536Z,1.59
2023-03-02T19:22:50.101Z,1.62
2023-03-02T19:25:52.617Z,1.60
2023-03-02T19:28:55.552Z,1.60
2023-03-02T19:31:59.636Z,1.60
2023-03-02T19:35:02.579Z,1.56
2023-03-02T19:38:05.833Z,1.56
2023-03-02T19:41:09.387Z,1.54
2023-03-02T19:44:12.646Z,1.58
2023-03-02T19:47:14.846Z,1.63
2023-03-02T19:50:17.898Z,1.63
2023-03-02T19:53:19.724Z,1.61
2023-03-02T19:56:22.047Z,1.61
2023-03-02T19:59:32.568Z,1.64
2023-03-02T20:02:40.168Z,1.64
2023-03-02T20:05:42.269Z,1.65
2023-03-02T20:08:44.211Z,1.66
2023-03-02T20:11:48.741Z,1.68
2023-03-02T20:14:52.904Z,1.70
2023-03-02T20:17:56.262Z,1.68
2023-03-02T20:20:58.263Z,1.68
2023-03-02T20:24:02.301Z,1.64
2023-03-02T20:27:06.972Z,1.62
2023-03-02T20:30:15.012Z,1.64
2023-03-02T20:33:19.227Z,1.59
2023-03-02T20:36:30.966Z,1.60
2023-03-02T20:39:36.335Z,1.57
2023-03-02T20:42:40.050Z,1.58
2023-03-02T20:45:42.152Z,1.55
2023-03-02T20:48:44.131Z,1.54
2023-03-02T20:51:56.317Z,1.52
2023-03-02T20:54:58.320Z,1.52
2023-03-02T20:58:01.243Z,1.46
2023-03-02T21:01:03.317Z,1.47
2023-03-02T21:04:06.834Z,1.45
2023-03-02T21:07:11.489Z,1.42
2023-03-02T21:10:21.540Z,1.44
2023-03-02T21:13:23.619Z,1.39
2023-03-02T21:16:28.476Z,1.33
2023-03-02T21:19:31.035Z,1.34
2023-03-02T21:22:32.891Z,1.37
2023-03-02T21:25:34.806Z,1.35
2023-03-02T21:28:36.965Z,1.31
2023-03-02T21:31:44.076Z,1.27
2023-03-02T21:34:46.049Z,1.27
2023-03-02T21:37:52.886Z,1.26
2023-03-02T21:40:55.155Z,1.22
2023-03-02T21:43:57.882Z,1.16
2023-03-02T21:46:59.834Z,1.17
2023-03-02T21:50:05.554Z,1.15
2023-03-02T21:53:07.733Z,1.13
2023-03-02T21:56:20.569Z,1.10
2023-03-02T21:59:22.536Z,1.04
2023-03-02T22:02:24.372Z,1.02
2023-03-02T22:05:27.002Z,1.02
2023-03-02T22:08:28.915Z,1.00
2023-03-02T22:11:34.426Z,0.97
2023-03-02T22:14:37.078Z,0.93
2023-03-02T22:17:39.379Z,0.94
2023-03-02T22:20:46.773Z,0.91
2023-03-02T22:23:48.996Z,0.93
2023-03-02T22:26:59.565Z,0.92
2023-03-02T22:30:08.120Z,0.94
2023-03-02T22:33:31.773Z,1.00
2023-03-02T22:36:33.651Z,1.00
2023-03-02T22:39:35.531Z,1.04
2023-03-02T22:42:37.384Z,1.03
2023-03-02T22:45:41.302Z,1.04
2023-03-02T22:48:51.794Z,1.06
2023-03-02T22:51:56.043Z,1.08
2023-03-02T22:54:57.947Z,1.07
2023-03-02T22:58:20.048Z,1.01
2023-03-02T23:01:30.452Z,1.02
2023-03-02T23:04:36.587Z,1.06
2023-03-02T23:07:38.488Z,1.12
2023-03-02T23:10:41.931Z,1.10
2023-03-02T23:13:44.750Z,1.12
2023-03-02T23:16:51.452Z,1.12
2023-03-02T23:19:56.142Z,1.11
2023-03-02T23:22:58.123Z,1.10
2023-03-02T23:26:00.020Z,1.11
2023-03-02T23:29:02.038Z,1.11
2023-03-02T23:32:04.386Z,1.12
2023-03-02T23:35:08.880Z,1.08
2023-03-02T23:38:12.142Z,1.10
2023-03-02T23:41:14.680Z,1.12
2023-03-02T23:44:18.339Z,1.06
2023-03-02T23:47:20.251Z,1.08
2023-03-02T23:50:26.261Z,1.01
2023-03-02T23:53:28.251Z,0.99
2023-03-02T23:56:30.135Z,0.93
2023-03-02T23:59:32.058Z,0.87
